Time;durP1;ratioP1;P1;durP2;ratioP2;P2;SDS_P1;SDS_P2;PMS_P1;PMS_P2;Temp;Humidity;BMP_temperature;BMP_pressure;BME280_temperature;BME280_humidity;BME280_pressure;Samples;Min_cycle;Max_cycle;Signal;HPM_P1;HPM_P2
2022/11/17 00:01:05;;;;;;;17.33;7.43;;;8.90;85.70;;;;;;5050480;28;20057;-79
2022/11/17 00:03:32;;;;;;;16.45;8.07;;;9.00;85.70;;;;;;5050551;28;20053;-78
2022/11/17 00:06:03;;;;;;;17.92;8.20;;;9.00;85.80;;;;;;5050145;28;20111;-79
2022/11/17 00:08:30;;;;;;;21.93;9.20;;;9.00;85.70;;;;;;5033688;28;20073;-79
2022/11/17 00:11:00;;;;;;;16.20;7.70;;;9.00;85.70;;;;;;5051198;28;20053;-79
2022/11/17 00:16:13;;;;;;;20.60;9.13;;;9.00;85.70;;;;;;5049917;28;20049;-79
2022/11/17 00:21:27;;;;;;;16.67;6.87;;;9.00;85.80;;;;;;5051412;28;20060;-78
2022/11/17 00:23:55;;;;;;;19.50;7.80;;;9.00;85.90;;;;;;5048884;28;20065;-79
2022/11/17 00:26:23;;;;;;;16.33;7.85;;;9.00;86.00;;;;;;5049763;28;20474;-79
2022/11/17 00:28:53;;;;;;;17.20;8.32;;;9.00;85.80;;;;;;5032812;28;20049;-78
2022/11/17 00:34:06;;;;;;;17.10;8.10;;;9.00;85.90;;;;;;5028883;28;20200;-79
2022/11/17 00:36:36;;;;;;;17.63;7.72;;;9.00;85.80;;;;;;5046450;28;20060;-79
2022/11/17 00:39:04;;;;;;;19.08;9.10;;;9.00;85.70;;;;;;5049022;28;20045;-79
2022/11/17 00:41:31;;;;;;;18.55;8.27;;;9.00;85.70;;;;;;5051445;28;20084;-79
2022/11/17 00:43:59;;;;;;;15.55;8.73;;;9.00;85.70;;;;;;5048975;28;20049;-79
2022/11/17 00:46:27;;;;;;;14.10;7.17;;;9.00;85.80;;;;;;5049695;28;20132;-79
2022/11/17 00:48:54;;;;;;;11.70;6.10;;;9.00;85.70;;;;;;5049360;28;20049;-79
2022/11/17 00:51:22;;;;;;;16.65;8.23;;;9.00;85.50;;;;;;5049575;28;20514;-79
2022/11/17 00:53:49;;;;;;;18.10;8.60;;;9.00;85.60;;;;;;5028459;28;20046;-78
2022/11/17 00:56:16;;;;;;;15.25;7.80;;;9.00;85.60;;;;;;5029288;28;20057;-78
2022/11/17 00:58:43;;;;;;;14.47;7.37;;;9.00;85.60;;;;;;5039217;28;20053;-78
2022/11/17 01:01:12;;;;;;;13.65;6.40;;;9.00;85.70;;;;;;5049580;28;20141;-78
2022/11/17 01:03:39;;;;;;;12.20;6.68;;;9.00;85.70;;;;;;5049681;28;20052;-79
2022/11/17 01:06:08;;;;;;;16.27;7.95;;;9.00;85.60;;;;;;5049287;28;20132;-78
2022/11/17 01:08:36;;;;;;;13.80;7.43;;;9.00;85.70;;;;;;5049656;28;20045;-79
2022/11/17 01:11:11;;;;;;;15.30;6.43;;;9.00;85.50;;;;;;5049181;28;21027;-79
2022/11/17 01:13:39;;;;;;;14.30;7.90;;;9.00;85.60;;;;;;5050754;28;20053;-79
2022/11/17 01:16:08;;;;;;;14.30;7.15;;;9.00;85.60;;;;;;5050509;28;20049;-79
2022/11/17 01:18:37;;;;;;;13.55;7.15;;;9.00;85.60;;;;;;5049099;28;20050;-79
2022/11/17 01:21:07;;;;;;;13.60;7.50;;;9.00;85.60;;;;;;5048694;28;20045;-78
2022/11/17 01:23:37;;;;;;;13.87;6.73;;;9.00;85.60;;;;;;5048356;28;20045;-79
2022/11/17 01:26:06;;;;;;;13.57;5.57;;;9.00;85.40;;;;;;5048971;28;20120;-78
2022/11/17 01:28:33;;;;;;;14.43;7.60;;;9.00;85.40;;;;;;5047783;28;20054;-79
2022/11/17 01:31:02;;;;;;;13.75;7.05;;;9.00;85.20;;;;;;5050368;28;20140;-79
2022/11/17 01:33:30;;;;;;;14.20;7.70;;;9.00;85.20;;;;;;5050559;28;20050;-78
2022/11/17 01:36:02;;;;;;;13.67;7.37;;;9.00;85.40;;;;;;5049232;28;20061;-79
2022/11/17 01:38:30;;;;;;;15.48;7.18;;;9.00;85.50;;;;;;5050113;28;20060;-79
2022/11/17 01:40:58;;;;;;;13.77;7.22;;;9.00;85.40;;;;;;5050322;28;20053;-79
2022/11/17 01:43:40;;;;;;;14.57;7.18;;;9.00;85.40;;;;;;5048796;28;20052;-78
2022/11/17 01:46:13;;;;;;;10.20;5.40;;;9.00;85.20;;;;;;5047744;28;20045;-78
2022/11/17 01:48:42;;;;;;;12.30;5.17;;;9.00;85.20;;;;;;5048974;28;20053;-79
2022/11/17 01:51:11;;;;;;;12.93;6.35;;;9.00;85.40;;;;;;5048287;28;20061;-78
2022/11/17 01:53:41;;;;;;;13.98;6.95;;;9.00;85.30;;;;;;5049296;28;20058;-78
2022/11/17 01:56:11;;;;;;;10.93;6.40;;;9.00;85.40;;;;;;5051514;28;20057;-78
2022/11/17 01:58:44;;;;;;;11.77;7.15;;;9.00;85.40;;;;;;5052480;28;20053;-78
2022/11/17 02:01:11;;;;;;;12.67;6.27;;;9.00;85.40;;;;;;5052015;28;20188;-79
2022/11/17 02:03:40;;;;;;;14.35;6.72;;;9.00;85.50;;;;;;5052634;28;20042;-79
2022/11/17 02:06:11;;;;;;;12.23;6.35;;;9.00;85.30;;;;;;5052241;28;20053;-79
2022/11/17 02:08:42;;;;;;;11.27;6.50;;;9.00;85.50;;;;;;5052961;28;20049;-78
2022/11/17 02:11:15;;;;;;;9.52;5.30;;;9.00;85.40;;;;;;5051891;28;20100;-78
2022/11/17 02:13:43;;;;;;;13.37;6.30;;;9.00;85.40;;;;;;5032343;28;20109;-79
2022/11/17 02:16:12;;;;;;;13.05;6.47;;;9.00;85.40;;;;;;5031906;28;20061;-79
2022/11/17 02:18:39;;;;;;;12.63;5.88;;;9.00;85.30;;;;;;5015777;28;20045;-79
2022/11/17 02:21:37;;;;;;;11.57;6.72;;;9.00;85.60;;;;;;5033442;28;20046;-79
2022/11/17 02:24:22;;;;;;;12.07;5.95;;;9.00;85.60;;;;;;5052108;28;20055;-78
2022/11/17 02:27:09;;;;;;;13.10;6.60;;;9.00;85.60;;;;;;5050782;28;20051;-79
2022/11/17 02:29:46;;;;;;;13.00;6.35;;;9.00;85.70;;;;;;5051349;28;20062;-79
2022/11/17 02:32:19;;;;;;;12.80;5.75;;;9.00;85.70;;;;;;5051283;28;20073;-79
2022/11/17 02:34:50;;;;;;;12.70;6.72;;;9.00;85.80;;;;;;5051778;28;20075;-79
2022/11/17 02:37:22;;;;;;;12.98;6.70;;;9.00;86.10;;;;;;5050636;28;20057;-79
2022/11/17 02:39:55;;;;;;;12.53;7.23;;;9.00;86.00;;;;;;5050976;28;20108;-79
2022/11/17 02:44:02;;;;;;;12.98;6.22;;;9.00;85.90;;;;;;5051545;28;20136;-79
2022/11/17 02:45:19;;;;;;;9.98;5.15;;;9.00;86.20;;;;;;5050982;28;20104;-79
2022/11/17 02:47:50;;;;;;;12.82;6.68;;;9.00;86.20;;;;;;5039099;28;20050;-79
2022/11/17 02:50:19;;;;;;;12.07;6.60;;;9.00;86.30;;;;;;5046021;28;20046;-79
2022/11/17 02:52:47;;;;;;;14.87;6.27;;;9.00;86.40;;;;;;5052945;28;20050;-79
2022/11/17 02:55:14;;;;;;;12.93;5.65;;;9.00;86.30;;;;;;5051618;28;20045;-79
2022/11/17 02:57:41;;;;;;;12.98;6.03;;;9.00;86.40;;;;;;5051143;28;20061;-79
2022/11/17 03:00:11;;;;;;;12.63;6.43;;;9.00;86.50;;;;;;5052404;28;20174;-78
2022/11/17 03:02:57;;;;;;;11.35;5.68;;;9.00;86.50;;;;;;5050687;28;20073;-79
2022/11/17 03:05:29;;;;;;;11.50;5.80;;;9.00;86.70;;;;;;5050567;28;20133;-79
2022/11/17 03:08:08;;;;;;;13.00;6.03;;;8.90;86.90;;;;;;5051234;28;20152;-79
2022/11/17 03:11:06;;;;;;;11.50;5.78;;;8.90;86.80;;;;;;5051812;28;20053;-78
2022/11/17 03:13:43;;;;;;;14.88;7.10;;;8.90;87.20;;;;;;5034416;28;20501;-78
2022/11/17 03:16:20;;;;;;;11.07;5.53;;;8.90;87.20;;;;;;5052385;28;20129;-79
2022/11/17 03:19:00;;;;;;;12.97;6.10;;;8.90;87.30;;;;;;5034090;28;20057;-79
2022/11/17 03:21:31;;;;;;;11.02;4.75;;;8.90;87.10;;;;;;5050528;28;20075;-78
2022/11/17 03:24:05;;;;;;;10.60;6.03;;;8.90;87.20;;;;;;5051226;28;20057;-78
2022/11/17 03:26:38;;;;;;;11.02;4.95;;;8.90;87.20;;;;;;5050932;28;20124;-79
2022/11/17 03:29:08;;;;;;;12.15;5.25;;;8.90;87.10;;;;;;5050637;28;20056;-79
2022/11/17 03:31:38;;;;;;;9.93;4.70;;;8.90;87.20;;;;;;5049106;28;20053;-78
2022/11/17 03:34:13;;;;;;;10.48;5.47;;;8.90;87.30;;;;;;5050755;28;20529;-79
2022/11/17 03:36:45;;;;;;;11.38;4.63;;;8.80;87.30;;;;;;5050671;28;20053;-78
2022/11/17 03:39:16;;;;;;;11.75;5.88;;;8.80;87.20;;;;;;5050380;28;20134;-79
2022/11/17 03:41:48;;;;;;;11.27;5.65;;;8.80;87.20;;;;;;5050674;28;20057;-79
2022/11/17 03:44:19;;;;;;;9.63;4.03;;;8.90;87.20;;;;;;5049596;28;20049;-78
2022/11/17 03:46:49;;;;;;;6.70;2.45;;;8.80;87.50;;;;;;5050447;28;20053;-79
2022/11/17 03:49:23;;;;;;;11.20;5.43;;;8.80;87.60;;;;;;5049144;28;20052;-79
2022/11/17 03:51:50;;;;;;;9.00;3.75;;;8.80;87.50;;;;;;5052357;28;20049;-78
2022/11/17 03:54:18;;;;;;;9.18;5.10;;;8.80;87.40;;;;;;5050305;28;20058;-79
2022/11/17 03:56:54;;;;;;;10.23;5.20;;;8.80;87.50;;;;;;5033614;28;20577;-78
2022/11/17 03:59:27;;;;;;;7.95;4.45;;;8.80;87.50;;;;;;5046656;28;20085;-79
2022/11/17 04:01:54;;;;;;;9.30;4.93;;;8.80;87.60;;;;;;5047256;28;20134;-79
2022/11/17 04:04:22;;;;;;;8.20;4.35;;;8.80;87.40;;;;;;5033448;28;20053;-79
2022/11/17 04:06:51;;;;;;;10.70;4.90;;;8.80;87.60;;;;;;5048636;28;20053;-79
2022/11/17 04:09:19;;;;;;;9.40;4.47;;;8.80;87.50;;;;;;5050014;28;20060;-79
2022/11/17 04:17:15;;;;;;;8.85;4.63;;;8.80;87.30;;;;;;5030987;28;20085;-79
2022/11/17 04:19:43;;;;;;;6.95;3.50;;;8.80;87.50;;;;;;5048009;28;20041;-78
2022/11/17 04:22:10;;;;;;;8.03;4.37;;;8.80;87.50;;;;;;5048449;28;20050;-79
2022/11/17 04:24:37;;;;;;;9.18;4.32;;;8.80;87.50;;;;;;5048651;28;20049;-79
2022/11/17 04:29:50;;;;;;;7.80;4.32;;;8.70;87.50;;;;;;5049790;28;20041;-78
2022/11/17 04:32:17;;;;;;;8.30;3.78;;;8.70;87.40;;;;;;5051368;28;20049;-78
2022/11/17 04:34:45;;;;;;;8.00;3.63;;;8.70;87.40;;;;;;5049088;28;20144;-78
2022/11/17 04:37:17;;;;;;;7.68;4.30;;;8.70;87.50;;;;;;5048606;28;20046;-78
2022/11/17 04:39:44;;;;;;;9.85;4.68;;;8.70;87.40;;;;;;5051103;28;20056;-78
2022/11/17 04:42:10;;;;;;;8.77;4.18;;;8.60;87.50;;;;;;5032451;28;20419;-78
2022/11/17 04:44:37;;;;;;;8.02;4.15;;;8.60;87.60;;;;;;5049006;28;20085;-78
2022/11/17 04:47:05;;;;;;;8.57;4.23;;;8.60;87.60;;;;;;5050050;28;20142;-78
2022/11/17 04:49:33;;;;;;;9.05;4.55;;;8.70;87.60;;;;;;5030942;28;20104;-78
2022/11/17 04:52:02;;;;;;;8.05;4.32;;;8.70;87.50;;;;;;5041084;28;20056;-78
2022/11/17 04:54:29;;;;;;;8.23;3.80;;;8.70;87.40;;;;;;5050925;28;20112;-79
2022/11/17 04:56:56;;;;;;;6.65;3.20;;;8.70;87.30;;;;;;5050533;28;20057;-78
2022/11/17 04:59:24;;;;;;;7.63;3.97;;;8.70;87.40;;;;;;5049434;28;20065;-78
2022/11/17 05:01:51;;;;;;;7.05;3.83;;;8.70;87.10;;;;;;5047728;28;20063;-78
2022/11/17 05:07:03;;;;;;;7.88;3.38;;;8.60;86.90;;;;;;5050126;28;20053;-78
2022/11/17 05:09:30;;;;;;;8.27;4.43;;;8.60;86.90;;;;;;5048766;28;20061;-78
2022/11/17 05:14:41;;;;;;;8.15;3.90;;;8.60;86.80;;;;;;5018977;28;20514;-78
2022/11/17 05:17:08;;;;;;;8.95;3.88;;;8.60;86.80;;;;;;5049196;28;20054;-78
2022/11/17 05:19:37;;;;;;;7.00;3.42;;;8.60;87.00;;;;;;5049601;28;20049;-79
2022/11/17 05:23:52;;;;;;;7.28;3.72;;;8.60;87.10;;;;;;5050350;28;20060;-78
2022/11/17 05:24:53;;;;;;;7.77;4.03;;;8.60;87.00;;;;;;5031370;28;20052;-79
2022/11/17 05:27:21;;;;;;;5.40;2.60;;;8.60;86.80;;;;;;5049099;28;20049;-79
2022/11/17 05:29:48;;;;;;;7.00;3.90;;;8.50;86.70;;;;;;5048823;28;20638;-78
2022/11/17 05:32:15;;;;;;;6.82;3.53;;;8.50;86.60;;;;;;5065872;28;20538;-79
2022/11/17 05:34:42;;;;;;;6.47;3.42;;;8.50;86.60;;;;;;5049401;28;20820;-79
2022/11/17 05:37:11;;;;;;;6.70;3.40;;;8.50;86.60;;;;;;5047862;28;20053;-78
2022/11/17 05:39:38;;;;;;;5.75;3.15;;;8.50;86.50;;;;;;5048670;28;20059;-78
2022/11/17 05:42:05;;;;;;;5.43;2.25;;;8.40;86.60;;;;;;5048978;28;20133;-78
2022/11/17 05:44:32;;;;;;;7.25;3.60;;;8.40;86.60;;;;;;5048129;28;20052;-78
2022/11/17 05:46:59;;;;;;;7.53;3.53;;;8.40;86.50;;;;;;5045493;28;20144;-79
2022/11/17 05:49:26;;;;;;;6.40;3.47;;;8.40;86.50;;;;;;5030215;28;20129;-78
2022/11/17 05:51:54;;;;;;;6.38;3.17;;;8.30;86.60;;;;;;5062506;28;20046;-79
2022/11/17 05:54:22;;;;;;;7.22;4.28;;;8.30;86.70;;;;;;5064728;28;20053;-79
2022/11/17 05:56:52;;;;;;;4.85;2.42;;;8.30;86.80;;;;;;5051716;28;20056;-79
2022/11/17 05:59:24;;;;;;;5.40;2.50;;;8.30;87.00;;;;;;5048034;28;20132;-79
2022/11/17 06:01:56;;;;;;;5.73;3.07;;;8.20;86.70;;;;;;5049845;28;20053;-79
2022/11/17 06:04:23;;;;;;;6.90;3.45;;;8.20;86.60;;;;;;5048543;28;20053;-79
2022/11/17 06:06:50;;;;;;;5.32;2.70;;;8.20;86.70;;;;;;5048663;28;20140;-79
2022/11/17 06:09:18;;;;;;;7.85;3.70;;;8.20;86.80;;;;;;5049976;28;20057;-79
2022/11/17 06:11:46;;;;;;;6.47;3.13;;;8.20;86.90;;;;;;5047442;28;20053;-79
2022/11/17 06:14:13;;;;;;;6.70;3.23;;;8.20;86.90;;;;;;5048387;28;20046;-79
2022/11/17 06:16:45;;;;;;;5.30;2.20;;;8.10;87.00;;;;;;5043604;28;20046;-79
2022/11/17 06:19:18;;;;;;;5.40;2.75;;;8.10;86.80;;;;;;5029488;28;20057;-78
2022/11/17 06:21:45;;;;;;;6.15;3.13;;;8.10;86.90;;;;;;5040455;28;20051;-78
2022/11/17 06:24:13;;;;;;;5.70;2.60;;;8.10;86.90;;;;;;5043046;28;20042;-79
2022/11/17 06:26:41;;;;;;;6.23;3.00;;;8.10;86.80;;;;;;5042908;28;20077;-78
2022/11/17 06:29:11;;;;;;;6.07;3.13;;;8.00;86.80;;;;;;5034152;28;20054;-78
2022/11/17 06:31:40;;;;;;;6.50;2.80;;;8.00;86.80;;;;;;5044455;28;20506;-78
2022/11/17 06:34:07;;;;;;;6.18;3.10;;;8.00;86.90;;;;;;5047886;28;20085;-79
2022/11/17 06:36:34;;;;;;;7.20;2.67;;;8.00;87.20;;;;;;5048257;28;20054;-78
2022/11/17 06:39:01;;;;;;;6.00;2.70;;;8.00;87.20;;;;;;5041740;28;20054;-79
2022/11/17 06:41:29;;;;;;;5.20;2.20;;;8.00;87.10;;;;;;5028328;28;20981;-79
2022/11/17 06:43:56;;;;;;;6.30;2.75;;;8.00;87.20;;;;;;5045883;28;20053;-78
2022/11/17 06:46:36;;;;;;;6.45;3.00;;;7.90;87.20;;;;;;5049942;28;20049;-78
2022/11/17 06:49:07;;;;;;;6.47;2.65;;;7.90;87.20;;;;;;5041436;28;20050;-79
2022/11/17 06:51:35;;;;;;;7.33;2.73;;;7.90;87.30;;;;;;5051413;28;20983;-79
2022/11/17 06:54:02;;;;;;;6.63;2.70;;;7.80;87.50;;;;;;5051486;28;20059;-78
2022/11/17 06:56:29;;;;;;;4.65;2.08;;;7.80;87.50;;;;;;5030593;28;20068;-79
2022/11/17 06:58:57;;;;;;;5.65;2.38;;;7.80;87.30;;;;;;5037079;28;20045;-79
2022/11/17 07:01:26;;;;;;;6.60;3.13;;;7.80;87.30;;;;;;5029720;28;20093;-78
2022/11/17 07:03:53;;;;;;;5.63;3.03;;;7.80;87.40;;;;;;5013922;28;20894;-78
2022/11/17 07:06:20;;;;;;;6.28;2.90;;;7.80;87.30;;;;;;5048974;28;20037;-78
2022/11/17 07:08:47;;;;;;;6.18;2.42;;;7.80;87.40;;;;;;5052376;28;20169;-79
2022/11/17 07:11:16;;;;;;;5.40;2.67;;;7.80;87.50;;;;;;5049486;28;20060;-78
2022/11/17 07:13:43;;;;;;;5.97;2.33;;;7.80;87.40;;;;;;5051546;28;20045;-78
2022/11/17 07:16:11;;;;;;;6.03;2.17;;;7.80;87.40;;;;;;5050339;28;20136;-78
2022/11/17 07:18:41;;;;;;;5.88;3.50;;;7.80;87.80;;;;;;5049987;28;20127;-78
2022/11/17 07:21:10;;;;;;;5.65;3.08;;;7.80;87.60;;;;;;5050123;28;20050;-78
2022/11/17 07:23:39;;;;;;;5.88;2.75;;;7.80;87.50;;;;;;5025645;28;20060;-77
2022/11/17 07:26:07;;;;;;;4.95;2.55;;;7.80;87.50;;;;;;5017577;28;20476;-77
2022/11/17 07:28:35;;;;;;;5.20;2.43;;;7.80;87.70;;;;;;5038317;28;20589;-77
2022/11/17 07:31:03;;;;;;;5.68;3.05;;;7.80;87.70;;;;;;5039496;28;20103;-77
2022/11/17 07:33:30;;;;;;;5.88;2.35;;;7.80;87.60;;;;;;5039391;28;20057;-78
2022/11/17 07:36:03;;;;;;;6.20;2.95;;;7.80;87.80;;;;;;5039706;28;20085;-77
2022/11/17 07:38:32;;;;;;;5.82;2.60;;;7.80;87.80;;;;;;5035797;28;20058;-77
2022/11/17 07:40:59;;;;;;;4.60;2.27;;;7.80;87.80;;;;;;5036241;28;20081;-78
2022/11/17 07:43:26;;;;;;;5.20;2.50;;;7.80;87.70;;;;;;5040619;28;20112;-77
2022/11/17 07:45:55;;;;;;;5.68;2.80;;;7.80;87.70;;;;;;5037804;28;20136;-77
2022/11/17 07:48:22;;;;;;;5.47;2.45;;;7.80;87.80;;;;;;5039683;28;20134;-77
2022/11/17 07:50:49;;;;;;;6.22;2.70;;;7.80;87.80;;;;;;5036369;28;20050;-78
2022/11/17 07:53:20;;;;;;;4.60;2.07;;;7.80;87.70;;;;;;5039000;28;20058;-77
2022/11/17 07:55:47;;;;;;;4.93;1.95;;;7.80;87.80;;;;;;5041636;28;20056;-77
2022/11/17 07:58:14;;;;;;;6.10;2.65;;;7.80;88.00;;;;;;5029942;28;20532;-78
2022/11/17 08:00:41;;;;;;;5.07;2.60;;;7.80;88.00;;;;;;5037361;28;20656;-78
2022/11/17 08:03:08;;;;;;;5.25;2.47;;;7.80;87.90;;;;;;5036743;28;20057;-78
2022/11/17 08:05:38;;;;;;;4.60;2.10;;;7.80;88.00;;;;;;5037531;28;20180;-77
2022/11/17 08:08:06;;;;;;;7.43;2.88;;;7.80;88.00;;;;;;5034227;28;20061;-78
2022/11/17 08:10:35;;;;;;;7.07;2.78;;;7.80;88.20;;;;;;5029697;28;20876;-78
2022/11/17 08:13:02;;;;;;;6.80;2.88;;;7.80;88.10;;;;;;5047986;28;20059;-78
2022/11/17 08:15:30;;;;;;;4.47;2.08;;;7.80;88.00;;;;;;5043668;28;20046;-78
2022/11/17 08:17:59;;;;;;;6.70;3.33;;;7.80;88.10;;;;;;5043497;28;20140;-78
2022/11/17 08:20:28;;;;;;;5.78;2.75;;;7.80;88.00;;;;;;5049985;28;20085;-78
2022/11/17 08:22:56;;;;;;;7.30;3.10;;;7.80;88.10;;;;;;5045247;28;20554;-77
2022/11/17 08:25:25;;;;;;;5.28;2.65;;;7.80;88.00;;;;;;5049551;28;20117;-77
2022/11/17 08:27:56;;;;;;;5.43;2.65;;;7.80;88.10;;;;;;5033061;28;20053;-77
2022/11/17 08:30:25;;;;;;;5.60;2.67;;;7.80;88.30;;;;;;5051226;28;20057;-77
2022/11/17 08:32:53;;;;;;;5.93;2.60;;;7.80;88.50;;;;;;5028658;28;20057;-77
2022/11/17 08:35:22;;;;;;;6.35;3.35;;;7.80;88.40;;;;;;5040739;28;20152;-77
2022/11/17 08:37:49;;;;;;;5.90;2.88;;;7.80;88.40;;;;;;5032404;28;20049;-78
2022/11/17 08:40:17;;;;;;;5.95;2.70;;;7.90;88.30;;;;;;5047426;28;20052;-77
2022/11/17 08:42:44;;;;;;;6.43;3.10;;;7.80;88.20;;;;;;5043919;28;20050;-77
2022/11/17 08:45:13;;;;;;;6.88;2.78;;;7.90;88.50;;;;;;5028272;28;20050;-77
2022/11/17 08:47:41;;;;;;;7.35;3.47;;;7.90;88.50;;;;;;5028863;28;20076;-77
2022/11/17 08:50:09;;;;;;;5.72;2.75;;;7.90;88.50;;;;;;5012669;28;20528;-77
2022/11/17 08:52:36;;;;;;;5.53;2.95;;;7.90;88.20;;;;;;5036777;28;20144;-76
2022/11/17 08:55:04;;;;;;;5.40;2.63;;;7.90;88.20;;;;;;5047962;28;20053;-78
2022/11/17 08:57:32;;;;;;;5.25;2.70;;;7.90;88.20;;;;;;5039159;28;20060;-78
2022/11/17 08:59:59;;;;;;;5.68;3.22;;;7.90;88.20;;;;;;5039293;28;20053;-78
2022/11/17 09:02:29;;;;;;;6.15;3.00;;;7.90;88.20;;;;;;5037937;28;20056;-78
2022/11/17 09:04:56;;;;;;;5.53;2.70;;;7.90;88.20;;;;;;5045678;28;20123;-78
2022/11/17 09:07:23;;;;;;;5.67;3.03;;;7.90;88.20;;;;;;5047390;28;20073;-78
2022/11/17 09:09:50;;;;;;;6.20;3.05;;;7.90;88.30;;;;;;5040347;28;20050;-77
2022/11/17 09:12:17;;;;;;;5.13;2.65;;;7.90;88.50;;;;;;5045509;28;20053;-78
2022/11/17 09:14:44;;;;;;;7.78;3.20;;;7.90;88.40;;;;;;5047633;28;20058;-78
2022/11/17 09:17:12;;;;;;;5.65;2.83;;;7.90;88.30;;;;;;5042922;28;20049;-78
2022/11/17 09:19:40;;;;;;;5.37;2.60;;;7.80;88.40;;;;;;5042288;28;20135;-77
2022/11/17 09:22:07;;;;;;;5.22;2.72;;;7.90;88.60;;;;;;5042176;28;20497;-78
2022/11/17 09:24:34;;;;;;;5.55;2.80;;;7.90;88.50;;;;;;5035649;28;20056;-77
2022/11/17 09:27:02;;;;;;;6.07;3.28;;;7.90;88.50;;;;;;5037067;28;20070;-78
2022/11/17 09:29:30;;;;;;;5.32;2.35;;;7.90;88.50;;;;;;5036787;28;20124;-77
2022/11/17 09:31:57;;;;;;;5.60;3.13;;;7.90;88.40;;;;;;5049062;28;20144;-78
2022/11/17 09:34:24;;;;;;;5.63;2.90;;;7.90;88.50;;;;;;5044001;28;20064;-78
2022/11/17 09:36:53;;;;;;;4.53;2.28;;;8.00;88.60;;;;;;5042993;28;20143;-78
2022/11/17 09:39:21;;;;;;;4.68;2.40;;;8.00;88.60;;;;;;5020129;28;20054;-78
2022/11/17 09:41:50;;;;;;;5.28;3.00;;;8.00;88.70;;;;;;5040075;28;20195;-77
2022/11/17 09:44:29;;;;;;;4.97;2.33;;;8.00;88.70;;;;;;5028628;28;20054;-78
2022/11/17 09:47:10;;;;;;;4.97;2.58;;;8.00;88.60;;;;;;5046487;28;20132;-78
2022/11/17 09:49:49;;;;;;;5.55;2.72;;;8.00;88.70;;;;;;5047874;28;20046;-78
2022/11/17 09:52:23;;;;;;;6.05;2.22;;;8.00;88.90;;;;;;5048817;28;20053;-78
2022/11/17 09:54:54;;;;;;;4.05;1.92;;;8.00;88.90;;;;;;5043430;28;20081;-78
2022/11/17 09:57:27;;;;;;;4.80;2.50;;;8.00;88.80;;;;;;5048222;28;20527;-78
2022/11/17 10:00:13;;;;;;;4.05;1.92;;;8.00;88.90;;;;;;5049132;28;20640;-79
2022/11/17 10:02:41;;;;;;;4.90;2.40;;;8.00;88.90;;;;;;5030942;28;20110;-78
2022/11/17 10:05:14;;;;;;;4.80;2.30;;;8.00;88.90;;;;;;5039723;28;20049;-79
2022/11/17 10:07:48;;;;;;;4.50;2.28;;;8.00;88.80;;;;;;5045119;28;20054;-78
2022/11/17 10:10:19;;;;;;;5.43;2.20;;;8.00;89.00;;;;;;5046828;28;20833;-78
2022/11/17 10:12:51;;;;;;;5.55;2.50;;;8.00;89.10;;;;;;5030287;28;20133;-78
2022/11/17 10:15:24;;;;;;;4.63;2.38;;;8.00;89.10;;;;;;5048633;28;20128;-79
2022/11/17 10:17:51;;;;;;;5.72;2.40;;;8.00;89.20;;;;;;5050368;28;20144;-78
2022/11/17 10:20:18;;;;;;;4.88;2.05;;;8.10;89.30;;;;;;5043447;28;20054;-79
2022/11/17 10:22:48;;;;;;;4.73;2.30;;;8.10;89.10;;;;;;5041728;28;20522;-80
2022/11/17 10:25:36;;;;;;;5.60;2.30;;;8.10;89.20;;;;;;5044881;28;20046;-80
2022/11/17 10:28:04;;;;;;;4.72;2.25;;;8.10;89.20;;;;;;5050360;28;20057;-78
2022/11/17 10:30:31;;;;;;;4.65;2.50;;;8.10;89.40;;;;;;5051170;28;20056;-79
2022/11/17 10:33:00;;;;;;;4.82;2.10;;;8.10;89.40;;;;;;5050408;28;20053;-78
2022/11/17 10:35:29;;;;;;;4.50;2.37;;;8.10;89.50;;;;;;5087879;22;20061;-78
2022/11/17 10:38:00;;;;;;;5.07;2.50;;;8.10;89.60;;;;;;5070656;28;20057;-79
2022/11/17 10:40:29;;;;;;;4.40;2.33;;;8.20;89.60;;;;;;5052847;28;20052;-79
2022/11/17 10:43:18;;;;;;;4.90;2.30;;;8.20;89.70;;;;;;5071319;28;20041;-79
2022/11/17 10:45:49;;;;;;;4.43;2.38;;;8.20;89.60;;;;;;5077736;28;20053;-78
2022/11/17 10:48:24;;;;;;;4.60;2.67;;;8.20;89.60;;;;;;5090033;28;20059;-73
2022/11/17 10:50:53;;;;;;;5.45;2.63;;;8.30;89.40;;;;;;5085909;28;20056;-73
2022/11/17 10:53:28;;;;;;;3.95;2.20;;;8.30;89.60;;;;;;5088580;28;20051;-74
2022/11/17 10:56:02;;;;;;;3.90;2.20;;;8.30;89.60;;;;;;5085688;28;20048;-73
2022/11/17 10:58:31;;;;;;;4.90;2.72;;;8.30;89.80;;;;;;5081037;28;20053;-73
2022/11/17 11:01:01;;;;;;;5.23;1.90;;;8.30;89.90;;;;;;5058543;28;20041;-73
2022/11/17 11:03:30;;;;;;;4.00;2.00;;;8.40;89.90;;;;;;5087834;28;20044;-73
2022/11/17 11:06:22;;;;;;;4.40;2.10;;;8.40;89.80;;;;;;5059089;28;20049;-73
2022/11/17 11:08:56;;;;;;;3.80;1.90;;;8.40;89.80;;;;;;5074437;28;20060;-73
2022/11/17 11:14:39;;;;;;;4.07;2.03;;;8.40;89.70;;;;;;5055587;28;20592;-72
2022/11/17 11:17:11;;;;;;;5.00;2.40;;;8.40;89.40;;;;;;5032571;28;20041;-73
2022/11/17 11:19:39;;;;;;;4.47;2.10;;;8.40;89.40;;;;;;5068597;28;20044;-72
2022/11/17 11:22:27;;;;;;;4.03;2.10;;;8.40;89.30;;;;;;5048278;28;20499;-72
2022/11/17 11:25:09;;;;;;;3.53;1.42;;;8.40;89.30;;;;;;5089271;28;20645;-73
2022/11/17 11:27:58;;;;;;;4.50;2.03;;;8.50;89.40;;;;;;5076207;28;20057;-72
2022/11/17 11:30:27;;;;;;;3.75;1.77;;;8.50;89.50;;;;;;5033637;28;20049;-72
2022/11/17 11:33:06;;;;;;;3.88;2.03;;;8.50;89.50;;;;;;5044176;28;20049;-72
2022/11/17 11:36:05;;;;;;;5.32;2.25;;;8.50;89.50;;;;;;5071555;28;20056;-72
2022/11/17 11:38:49;;;;;;;3.92;2.03;;;8.50;89.40;;;;;;5046429;28;20053;-72
2022/11/17 11:41:41;;;;;;;4.10;2.10;;;8.50;89.50;;;;;;5064847;28;20121;-72
2022/11/17 11:44:26;;;;;;;4.53;1.90;;;8.50;89.60;;;;;;5068171;28;20060;-72
2022/11/17 11:46:59;;;;;;;3.92;1.90;;;8.50;89.70;;;;;;5066657;28;20059;-72
2022/11/17 11:49:34;;;;;;;4.70;1.85;;;8.50;89.70;;;;;;5049436;28;20523;-72
2022/11/17 11:52:04;;;;;;;4.07;1.90;;;8.60;89.80;;;;;;5050519;28;20075;-71
2022/11/17 11:54:35;;;;;;;4.10;1.87;;;8.60;90.00;;;;;;5050682;28;20135;-71
2022/11/17 11:57:04;;;;;;;4.53;2.03;;;8.60;90.00;;;;;;5049194;28;20048;-71
2022/11/17 11:59:38;;;;;;;4.88;2.00;;;8.60;90.10;;;;;;5039239;28;20149;-71
2022/11/17 12:02:20;;;;;;;4.20;1.98;;;8.60;90.10;;;;;;5066227;28;20049;-71
2022/11/17 12:04:54;;;;;;;4.68;2.05;;;8.60;90.10;;;;;;5032121;28;20061;-71
2022/11/17 12:07:30;;;;;;;4.00;2.00;;;8.60;90.10;;;;;;5048675;28;20050;-71
2022/11/17 12:10:04;;;;;;;4.25;2.00;;;8.70;90.20;;;;;;5041924;28;20045;-71
2022/11/17 12:12:36;;;;;;;4.35;2.10;;;8.70;90.20;;;;;;5065396;28;20049;-71
2022/11/17 12:15:32;;;;;;;4.22;1.88;;;8.80;90.10;;;;;;5051375;28;20056;-71
2022/11/17 12:18:02;;;;;;;4.93;2.22;;;8.80;90.20;;;;;;5062930;28;20849;-72
2022/11/17 12:20:50;;;;;;;4.07;2.00;;;8.80;90.30;;;;;;5069362;28;20517;-72
2022/11/17 12:23:26;;;;;;;4.57;2.28;;;8.80;90.30;;;;;;5040842;28;20056;-72
2022/11/17 12:25:55;;;;;;;4.55;2.17;;;8.90;90.40;;;;;;5050769;28;20147;-72
2022/11/17 12:28:34;;;;;;;4.90;2.40;;;8.90;90.40;;;;;;5069198;28;20066;-71
2022/11/17 12:31:02;;;;;;;4.20;2.28;;;8.90;90.30;;;;;;5029388;28;20041;-71
2022/11/17 12:34:10;;;;;;;4.47;2.57;;;9.00;90.40;;;;;;5067292;28;20057;-71
2022/11/17 12:36:37;;;;;;;5.05;2.13;;;9.00;90.40;;;;;;5065884;28;20053;-71
2022/11/17 12:39:06;;;;;;;4.55;2.50;;;9.00;90.50;;;;;;5048412;28;20166;-72
2022/11/17 12:42:05;;;;;;;5.35;2.97;;;9.00;90.70;;;;;;5066314;28;20071;-71
2022/11/17 12:45:11;;;;;;;4.15;2.35;;;9.20;90.70;;;;;;5034327;28;20049;-72
2022/11/17 12:47:40;;;;;;;5.60;2.50;;;9.20;90.80;;;;;;5048664;28;20053;-72
2022/11/17 12:50:41;;;;;;;5.38;2.55;;;9.20;90.90;;;;;;5050175;28;20667;-72
2022/11/17 12:53:37;;;;;;;5.05;2.40;;;9.30;90.90;;;;;;5062827;28;20909;-72
2022/11/17 12:56:31;;;;;;;4.78;1.98;;;9.40;91.00;;;;;;5047094;28;20057;-72
2022/11/17 12:59:08;;;;;;;4.80;2.25;;;9.40;91.10;;;;;;5037453;28;20049;-72
2022/11/17 13:01:43;;;;;;;5.97;2.00;;;9.40;90.90;;;;;;5029270;28;20132;-72
2022/11/17 13:04:15;;;;;;;4.68;1.80;;;9.40;90.90;;;;;;5047516;28;20136;-72
2022/11/17 13:07:00;;;;;;;4.43;2.20;;;9.50;90.90;;;;;;5037093;28;20059;-72
2022/11/17 13:09:29;;;;;;;4.40;1.83;;;9.50;91.00;;;;;;5067202;28;20049;-72
2022/11/17 13:12:02;;;;;;;5.20;1.98;;;9.60;91.00;;;;;;5037638;28;20055;-72
2022/11/17 13:14:30;;;;;;;3.83;1.50;;;9.60;91.00;;;;;;5057279;28;20478;-72
2022/11/17 13:17:00;;;;;;;4.25;1.38;;;9.60;91.00;;;;;;5039154;28;20049;-71
2022/11/17 13:19:36;;;;;;;2.95;1.10;;;9.70;91.10;;;;;;5060882;28;20048;-72
2022/11/17 13:22:05;;;;;;;3.92;1.25;;;9.70;91.30;;;;;;5051065;28;20053;-72
2022/11/17 13:24:34;;;;;;;3.20;0.80;;;9.70;91.40;;;;;;5066748;28;20505;-72
2022/11/17 13:27:06;;;;;;;4.27;1.33;;;9.80;91.40;;;;;;5050329;28;20058;-72
2022/11/17 13:29:33;;;;;;;4.55;1.17;;;9.80;91.50;;;;;;5050005;28;20049;-72
2022/11/17 13:32:20;;;;;;;4.10;1.20;;;9.90;91.50;;;;;;5050551;28;20049;-72
2022/11/17 13:34:52;;;;;;;4.65;1.05;;;9.90;91.50;;;;;;5062442;28;20510;-72
2022/11/17 13:37:22;;;;;;;5.10;1.23;;;10.00;91.50;;;;;;5048179;28;20108;-72
2022/11/17 13:40:19;;;;;;;3.33;1.10;;;10.00;91.40;;;;;;5050569;28;20056;-72
2022/11/17 13:42:47;;;;;;;4.18;0.82;;;10.00;91.30;;;;;;5044233;28;20056;-72